This is the latest recevied weather packets stored in our database for station/object K6GKS. If no packets are shown the sender has not sent any weather packets the latest 10 day(s).
| Time | Temp. | Humidity | Pressure | Rain* | Wind** | Luminosity | Snow |
|---|---|---|---|---|---|---|---|
| 1787509262 | 28.33° C | 37% | 1012.6 hPa | 0 mm | - | - | - |
| 1787509081 | 27.78° C | 38% | 1012.6 hPa | 0 mm | - | - | - |
| 1787508902 | 28.33° C | 37% | 1012.6 hPa | 0 mm | - | - | - |
| 1787508722 | 28.33° C | 37% | 1012.6 hPa | 0 mm | - | - | - |
| 1787508542 | 28.33° C | 39% | 1012.8 hPa | 0 mm | - | - | - |
| 1787508363 | 29.44° C | 37% | 1012.6 hPa | 0 mm | - | - | - |
| 1787508183 | 29.44° C | 39% | 1012.9 hPa | 0 mm | - | - | - |
| 1787508002 | 28.89° C | 40% | 1012.9 hPa | 0 mm | - | - | - |
| 1787507823 | 28.33° C | 43% | 1012.6 hPa | 0 mm | - | - | - |
| 1787507641 | 27.22° C | 45% | 1012.8 hPa | 0 mm | - | - | - |
| 1787507462 | 27.78° C | 43% | 1012.8 hPa | 0 mm | - | - | - |
| 1787507282 | 27.78° C | 43% | 1013.1 hPa | 0 mm | - | - | - |
| 1787507103 | 27.78° C | 44% | 1013 hPa | 0 mm | - | - | - |
| 1787506922 | 26.67° C | 46% | 1012.9 hPa | 0 mm | - | - | - |
| 1787506742 | 26.11° C | 47% | 1012.9 hPa | 0 mm | - | - | - |
| 1787506562 | 26.11° C | 48% | 1013 hPa | 0 mm | - | - | - |
| 1787506383 | 26.11° C | 48% | 1013 hPa | 0 mm | - | - | - |
| 1787506203 | 25.56° C | 49% | 1013 hPa | 0 mm | - | - | - |
| 1787506023 | 25.56° C | 49% | 1013 hPa | 0 mm | - | - | - |
| 1787505842 | 25.56° C | 50% | 1012.9 hPa | 0 mm | - | - | - |
| 1787505662 | 25.56° C | 50% | 1013 hPa | 0 mm | - | - | - |
| 1787505482 | 25.56° C | 51% | 1013 hPa | 0 mm | - | - | - |
| 1787505303 | 25° C | 51% | 1013 hPa | 0 mm | - | - | - |
| 1787505123 | 25° C | 50% | 1013 hPa | 0 mm | - | - | - |
| 1787504942 | 25° C | 51% | 1013.1 hPa | 0 mm | - | - | - |
* Rain latest hour (hover to see other rain measurements)
** Current wind speed in m/s (hover to see current wind gust speed)